Aviation Digital Data Service (ADDS)

Output produced by METARs form (1458 UTC 30 August 2016)
found at http://www.aviationweather.gov/adds/metars/
 
KBFD 301453Z AUTO VRB05KT 10SM CLR 22/15 A3023 RMK AO2 SLP225 T02220150 57006
KBFD 301353Z AUTO 00000KT 10SM CLR 21/14 A3024 RMK AO2 SLP228 T02060144
KBFD 301253Z AUTO 00000KT 10SM CLR 18/16 A3024 RMK AO2 SLP230 T01780161
KBFD 301153Z AUTO 00000KT 10SM FEW001 14/13 A3025 RMK AO2 SLP235 T01390128 10139 20100 53001
KBFD 301146Z AUTO 00000KT 10SM SCT001 13/12 A3025 RMK AO2 T01280122
KBFD 301131Z AUTO 00000KT 10SM BKN001 12/12 A3025 RMK AO2 T01170117
KBFD 301124Z AUTO 00000KT 10SM SCT001 11/11 A3025 RMK AO2 T01110111
KBFD 301111Z AUTO 00000KT 7SM BKN001 11/11 A3025 RMK AO2 T01060106 $
KBFD 301053Z AUTO 00000KT 5SM BR FEW002 11/11 A3025 RMK AO2 SLP234 T01060106 $
KBFD 301046Z AUTO 00000KT 5SM BR FEW002 11/11 A3024 RMK AO2 T01060106 $
KBFD 301030Z AUTO 00000KT 4SM BR CLR 11/11 A3024 RMK AO2 T01110106 $
KBFD 301020Z AUTO 00000KT 1 1/2SM BR FEW002 11/11 A3025 RMK AO2 T01060106 $
KBFD 300953Z AUTO 00000KT 4SM BR SCT001 11/11 A3024 RMK AO2 SLP231 T01110111 $
KBFD 300936Z AUTO 32003KT 4SM BR SCT001 12/12 A3024 RMK AO2 T01170117 $
KBFD 300853Z AUTO 00000KT 9SM CLR 12/12 A3025 RMK AO2 SLP230 T01220117 53000 $
KBFD 300753Z AUTO 00000KT 10SM CLR 12/12 A3024 RMK AO2 SLP228 T01220122 $
KBFD 300739Z AUTO 00000KT 10SM SCT002 12/12 A3024 RMK AO2 T01220122 $
KBFD 300725Z AUTO 00000KT 10SM BKN001 12/12 A3024 RMK AO2 T01220122 $
KBFD 300718Z AUTO 00000KT 2SM BR BKN001 12/12 A3024 RMK AO2 T01220122 $
KBFD 300711Z AUTO 00000KT 1 3/4SM BR SCT002 12/12 A3024 RMK AO2 T01220122 $
KBFD 300703Z AUTO 00000KT 8SM FEW002 12/12 A3025 RMK AO2 T01170117 $
KBFD 300653Z AUTO 00000KT 10SM CLR 12/12 A3025 RMK AO2 SLP230 T01170117 $
KBFD 300620Z AUTO 12003KT 8SM CLR 12/12 A3024 RMK AO2 T01170117 $
KBFD 300613Z AUTO 14003KT 2 1/2SM BR CLR 12/12 A3024 RMK AO2 T01170117 $
KBFD 300553Z AUTO 00000KT 10SM CLR 13/13 A3024 RMK AO2 SLP229 T01330133 10200 20128 58006 $
KBFD 300453Z AUTO 00000KT 8SM CLR 14/14 A3026 RMK AO2 SLP234 T01390139 402670139 $
KBFD 300353Z AUTO 00000KT 10SM 16/14 A3026 RMK AO2 SLP233 T01560144 $
KBFD 300253Z AUTO 00000KT 10SM CLR 16/15 A3026 RMK AO2 SLP236 T01610150 51007
KBFD 300153Z AUTO 33003KT 10SM CLR 17/15 A3026 RMK AO2 SLP235 T01720150
KBFD 300053Z AUTO 00000KT 10SM CLR 18/15 A3026 RMK AO2 SLP233 T01830150
KBFD 292353Z AUTO 32004KT 10SM CLR 20/15 A3024 RMK AO2 SLP228 T02000150 10267 20200 55000
KBFD 292253Z AUTO 35005KT 10SM CLR 24/15 A3024 RMK AO2 SLP224 T02390150
KBFD 292153Z AUTO 34006KT 10SM CLR 25/14 A3024 RMK AO2 SLP223 T02500144
KBFD 292053Z AUTO 34006KT 10SM CLR 26/14 A3024 RMK AO2 SLP224 T02610144 56014
KBFD 291953Z AUTO 34005KT 10SM CLR 26/14 A3025 RMK AO2 SLP226 T02610144
KBFD 291853Z AUTO 35006KT 10SM CLR 26/13 A3027 RMK AO2 SLP234 T02610128
KBFD 291753Z AUTO 34006KT 10SM CLR 26/13 A3028 RMK AO2 SLP238 T02560128 10261 20189 56004
KBFD 291653Z AUTO 35007KT 10SM CLR 24/13 A3029 RMK AO2 SLP240 T02440133
KBFD 291553Z AUTO 10SM CLR 23/13 A3029 RMK AO2 SLP243 T02330133
KBFD 291453Z AUTO VRB05KT 10SM CLR 23/14 A3030 RMK AO2 SLP244 T02280144 51005
KBFD 291353Z AUTO 32008KT 10SM CLR 21/16 A3029 RMK AO2 SLP243 T02110156
KBFD 291253Z AUTO 35006KT 10SM CLR 20/15 A3029 RMK AO2 SLP243 T02000150
KBFD 291153Z AUTO 36005KT 10SM CLR 19/17 A3028 RMK AO2 SLP240 70002 T01890172 10200 20183 53012
KBFD 291135Z AUTO 35005KT 10SM SCT010 18/17 A3028 RMK AO2 T01830172
KBFD 291123Z AUTO 34005KT 10SM BKN010 18/17 A3027 RMK AO2 CIG 008V013 T01830172
KBFD 291053Z AUTO 36005KT 10SM SCT013 19/18 A3026 RMK AO2 SLP231 T01890178
KBFD 291039Z AUTO 36007KT 10SM SCT009 BKN014 19/18 A3025 RMK AO2 T01890183
KBFD 291032Z AUTO 36006KT 10SM SCT009 OVC016 19/19 A3025 RMK AO2 T01940189
KBFD 291015Z AUTO 36006KT 10SM BKN008 BKN013 OVC018 20/19 A3025 RMK AO2 CIG 006V011 T02000194
KBFD 291012Z AUTO 36007KT 10SM SCT010 BKN015 OVC020 20/19 A3025 RMK AO2 T02000194
KBFD 291001Z AUTO 35004KT 9SM BKN009 OVC016 20/19 A3024 RMK AO2 CIG 007V013 T02000194
KBFD 290953Z AUTO 34004KT 10SM SCT007 OVC016 20/19 A3024 RMK AO2 SLP222 T02000194
KBFD 290944Z AUTO 34003KT 10SM SCT010 OVC016 20/19 A3024 RMK AO2 T02000194
KBFD 290931Z AUTO 34004KT 10SM BKN011 OVC017 20/19 A3024 RMK AO2 T02000194
KBFD 290926Z AUTO 33004KT 9SM OVC015 20/20 A3024 RMK AO2 T02000200
KBFD 290907Z AUTO 32003KT 9SM FEW006 BKN013 OVC018 20/19 A3024 RMK AO2 T02000194
KBFD 290853Z AUTO 33003KT 9SM SCT006 BKN015 OVC024 19/19 A3024 RMK AO2 SLP223 T01940194 55001
KBFD 290838Z AUTO 32005KT 9SM BKN006 OVC015 19/19 A3025 RMK AO2 CIG 005V011 T01940194
KBFD 290807Z AUTO 30004KT 10SM SCT006 BKN011 OVC019 19/19 A3024 RMK AO2 T01940194
KBFD 290753Z AUTO 30005KT 10SM FEW007 BKN020 19/19 A3024 RMK AO2 SLP220 T01940194
KBFD 290721Z AUTO 31004KT 10SM SCT007 BKN018 19/19 A3023 RMK AO2 T01890189
KBFD 290712Z AUTO 33005KT 10SM SCT005 19/19 A3024 RMK AO2 T01890189
KBFD 290653Z AUTO 35003KT 10SM CLR 18/18 A3024 RMK AO2 SLP221 T01830183
KBFD 290601Z AUTO VRB04KT 10SM FEW008 19/19 A3024 RMK AO2 T01940189
KBFD 290553Z AUTO 24003KT 10SM BKN008 19/19 A3025 RMK AO2 SLP224 T01940189 10217 20194 58006
KBFD 290537Z AUTO VRB03KT 10SM BKN009 BKN029 19/19 A3026 RMK AO2 T01940189
KBFD 290526Z AUTO 00000KT 10SM SCT009 SCT013 BKN027 19/19 A3026 RMK AO2 T01940189
KBFD 290453Z AUTO VRB04KT 10SM SCT029 20/19 A3027 RMK AO2 SLP233 T02000189 403000178
KBFD 290353Z AUTO 00000KT 10SM FEW026 20/19 A3028 RMK AO2 SLP234 T02000194